sensor_id;sensor_type;location;lat;lon;timestamp;temperature;humidity
5605;DHT22;9297;47.258;11.362;2024-01-16T00:01:58;1.10;92.60
5605;DHT22;9297;47.258;11.362;2024-01-16T00:04:25;1.10;92.20
5605;DHT22;9297;47.258;11.362;2024-01-16T00:06:52;1.20;91.50
5605;DHT22;9297;47.258;11.362;2024-01-16T00:09:19;1.20;91.20
5605;DHT22;9297;47.258;11.362;2024-01-16T00:11:46;1.20;91.10
5605;DHT22;9297;47.258;11.362;2024-01-16T00:14:14;1.20;91.40
5605;DHT22;9297;47.258;11.362;2024-01-16T00:16:42;1.10;90.90
5605;DHT22;9297;47.258;11.362;2024-01-16T00:19:10;1.10;91.00
5605;DHT22;9297;47.258;11.362;2024-01-16T00:21:39;1.10;90.90
5605;DHT22;9297;47.258;11.362;2024-01-16T00:24:06;1.00;90.90
5605;DHT22;9297;47.258;11.362;2024-01-16T00:26:33;1.00;90.80
5605;DHT22;9297;47.258;11.362;2024-01-16T00:29:00;1.00;91.40
5605;DHT22;9297;47.258;11.362;2024-01-16T00:31:28;1.00;90.90
5605;DHT22;9297;47.258;11.362;2024-01-16T00:33:55;1.00;91.00
5605;DHT22;9297;47.258;11.362;2024-01-16T00:36:22;1.00;91.10
5605;DHT22;9297;47.258;11.362;2024-01-16T00:38:49;0.90;91.30
5605;DHT22;9297;47.258;11.362;2024-01-16T00:41:16;1.00;91.20
5605;DHT22;9297;47.258;11.362;2024-01-16T00:43:44;1.00;91.50
5605;DHT22;9297;47.258;11.362;2024-01-16T00:46:11;1.00;91.60
5605;DHT22;9297;47.258;11.362;2024-01-16T00:48:39;1.00;91.60
5605;DHT22;9297;47.258;11.362;2024-01-16T00:51:06;1.00;92.40
5605;DHT22;9297;47.258;11.362;2024-01-16T00:53:33;0.90;92.70
5605;DHT22;9297;47.258;11.362;2024-01-16T00:56:00;0.90;92.40
5605;DHT22;9297;47.258;11.362;2024-01-16T00:58:27;0.90;92.40
5605;DHT22;9297;47.258;11.362;2024-01-16T01:00:54;0.90;92.70
5605;DHT22;9297;47.258;11.362;2024-01-16T01:03:21;1.00;92.60
5605;DHT22;9297;47.258;11.362;2024-01-16T01:05:50;0.90;92.20
5605;DHT22;9297;47.258;11.362;2024-01-16T01:08:17;0.80;91.80
5605;DHT22;9297;47.258;11.362;2024-01-16T01:10:44;0.90;92.10
5605;DHT22;9297;47.258;11.362;2024-01-16T01:13:11;0.80;91.70
5605;DHT22;9297;47.258;11.362;2024-01-16T01:15:38;0.70;91.00
5605;DHT22;9297;47.258;11.362;2024-01-16T01:18:05;0.70;91.30
5605;DHT22;9297;47.258;11.362;2024-01-16T01:20:32;0.80;91.30
5605;DHT22;9297;47.258;11.362;2024-01-16T01:23:01;0.80;91.10
5605;DHT22;9297;47.258;11.362;2024-01-16T01:25:28;0.80;91.20
5605;DHT22;9297;47.258;11.362;2024-01-16T01:27:55;0.80;91.60
5605;DHT22;9297;47.258;11.362;2024-01-16T01:30:22;0.70;91.40
5605;DHT22;9297;47.258;11.362;2024-01-16T01:32:48;0.70;91.90
5605;DHT22;9297;47.258;11.362;2024-01-16T01:35:17;0.70;91.60
5605;DHT22;9297;47.258;11.362;2024-01-16T01:37:44;0.70;91.90
5605;DHT22;9297;47.258;11.362;2024-01-16T01:40:13;0.70;92.20
5605;DHT22;9297;47.258;11.362;2024-01-16T01:42:41;0.70;91.90
5605;DHT22;9297;47.258;11.362;2024-01-16T01:45:08;0.70;91.80
5605;DHT22;9297;47.258;11.362;2024-01-16T01:47:36;0.70;91.90
5605;DHT22;9297;47.258;11.362;2024-01-16T01:50:03;0.60;91.60
5605;DHT22;9297;47.258;11.362;2024-01-16T01:52:31;0.50;92.10
5605;DHT22;9297;47.258;11.362;2024-01-16T01:54:59;0.40;92.30
5605;DHT22;9297;47.258;11.362;2024-01-16T01:57:27;0.40;92.90
5605;DHT22;9297;47.258;11.362;2024-01-16T02:00:09;0.40;93.00
5605;DHT22;9297;47.258;11.362;2024-01-16T02:02:36;0.40;92.30
5605;DHT22;9297;47.258;11.362;2024-01-16T02:05:04;0.40;92.20
5605;DHT22;9297;47.258;11.362;2024-01-16T02:07:31;0.40;92.30
5605;DHT22;9297;47.258;11.362;2024-01-16T02:10:00;0.40;92.40
5605;DHT22;9297;47.258;11.362;2024-01-16T02:12:28;0.40;92.20
5605;DHT22;9297;47.258;11.362;2024-01-16T02:14:55;0.40;92.10
5605;DHT22;9297;47.258;11.362;2024-01-16T02:17:22;0.40;92.50
5605;DHT22;9297;47.258;11.362;2024-01-16T02:19:49;0.20;91.70
5605;DHT22;9297;47.258;11.362;2024-01-16T02:22:20;0.20;92.00
5605;DHT22;9297;47.258;11.362;2024-01-16T02:24:49;0.20;92.20
5605;DHT22;9297;47.258;11.362;2024-01-16T02:27:16;0.20;92.00
5605;DHT22;9297;47.258;11.362;2024-01-16T02:29:46;0.20;91.90
5605;DHT22;9297;47.258;11.362;2024-01-16T02:32:14;0.10;92.20
5605;DHT22;9297;47.258;11.362;2024-01-16T02:34:41;0.10;92.50
5605;DHT22;9297;47.258;11.362;2024-01-16T02:37:08;0.20;92.40
5605;DHT22;9297;47.258;11.362;2024-01-16T02:39:35;0.20;92.10
5605;DHT22;9297;47.258;11.362;2024-01-16T02:42:04;0.10;91.60
5605;DHT22;9297;47.258;11.362;2024-01-16T02:44:31;0.00;90.40
5605;DHT22;9297;47.258;11.362;2024-01-16T02:46:58;-0.10;90.40
5605;DHT22;9297;47.258;11.362;2024-01-16T02:49:25;-0.10;91.00
5605;DHT22;9297;47.258;11.362;2024-01-16T02:51:53;-0.10;90.20
5605;DHT22;9297;47.258;11.362;2024-01-16T02:54:20;-0.10;91.10
5605;DHT22;9297;47.258;11.362;2024-01-16T02:56:47;-0.10;91.10
5605;DHT22;9297;47.258;11.362;2024-01-16T02:59:16;-0.20;89.50
5605;DHT22;9297;47.258;11.362;2024-01-16T03:01:43;-0.30;90.20
5605;DHT22;9297;47.258;11.362;2024-01-16T03:04:10;-0.20;90.40
5605;DHT22;9297;47.258;11.362;2024-01-16T03:06:37;-0.30;90.40
5605;DHT22;9297;47.258;11.362;2024-01-16T03:09:04;-0.30;90.30
5605;DHT22;9297;47.258;11.362;2024-01-16T03:11:31;-0.30;90.30
5605;DHT22;9297;47.258;11.362;2024-01-16T03:13:59;-0.30;90.20
5605;DHT22;9297;47.258;11.362;2024-01-16T03:16:28;-0.40;89.00
5605;DHT22;9297;47.258;11.362;2024-01-16T03:18:55;-0.50;88.20
5605;DHT22;9297;47.258;11.362;2024-01-16T03:21:22;-0.40;88.30
5605;DHT22;9297;47.258;11.362;2024-01-16T03:23:49;-0.40;89.60
5605;DHT22;9297;47.258;11.362;2024-01-16T03:26:16;-0.40;89.70
5605;DHT22;9297;47.258;11.362;2024-01-16T03:28:43;-0.40;90.20
5605;DHT22;9297;47.258;11.362;2024-01-16T03:31:12;-0.40;90.10
5605;DHT22;9297;47.258;11.362;2024-01-16T03:33:41;-0.30;90.20
5605;DHT22;9297;47.258;11.362;2024-01-16T03:36:08;-0.30;90.10
5605;DHT22;9297;47.258;11.362;2024-01-16T03:38:35;-0.40;89.50
5605;DHT22;9297;47.258;11.362;2024-01-16T03:41:02;-0.50;89.00
5605;DHT22;9297;47.258;11.362;2024-01-16T03:43:29;-0.50;89.40
5605;DHT22;9297;47.258;11.362;2024-01-16T03:45:57;-0.50;89.70
5605;DHT22;9297;47.258;11.362;2024-01-16T03:48:24;-0.50;89.60
5605;DHT22;9297;47.258;11.362;2024-01-16T03:50:52;-0.70;89.00
5605;DHT22;9297;47.258;11.362;2024-01-16T03:53:19;-0.70;89.90
5605;DHT22;9297;47.258;11.362;2024-01-16T03:55:47;-0.60;89.10
5605;DHT22;9297;47.258;11.362;2024-01-16T03:58:14;-0.60;89.20
5605;DHT22;9297;47.258;11.362;2024-01-16T04:00:41;-0.60;89.00
5605;DHT22;9297;47.258;11.362;2024-01-16T04:03:08;-0.60;89.10
5605;DHT22;9297;47.258;11.362;2024-01-16T04:05:35;-0.60;89.00
5605;DHT22;9297;47.258;11.362;2024-01-16T04:08:04;-0.50;89.40
5605;DHT22;9297;47.258;11.362;2024-01-16T04:10:31;-0.50;89.70
5605;DHT22;9297;47.258;11.362;2024-01-16T04:13:00;-0.50;90.20
5605;DHT22;9297;47.258;11.362;2024-01-16T04:15:27;-0.60;89.80
5605;DHT22;9297;47.258;11.362;2024-01-16T04:17:57;-0.50;90.10
5605;DHT22;9297;47.258;11.362;2024-01-16T04:20:24;-0.40;89.50
5605;DHT22;9297;47.258;11.362;2024-01-16T04:22:51;-0.40;89.50
5605;DHT22;9297;47.258;11.362;2024-01-16T04:25:20;-0.30;88.80
5605;DHT22;9297;47.258;11.362;2024-01-16T04:27:47;-0.30;88.80
5605;DHT22;9297;47.258;11.362;2024-01-16T04:30:14;-0.30;89.90
5605;DHT22;9297;47.258;11.362;2024-01-16T04:32:41;-0.30;89.30
5605;DHT22;9297;47.258;11.362;2024-01-16T04:35:08;-0.30;89.50
5605;DHT22;9297;47.258;11.362;2024-01-16T04:37:36;-0.30;90.10
5605;DHT22;9297;47.258;11.362;2024-01-16T04:40:03;-0.20;90.20
5605;DHT22;9297;47.258;11.362;2024-01-16T04:42:31;-0.10;89.80
5605;DHT22;9297;47.258;11.362;2024-01-16T04:44:58;-0.10;89.70
5605;DHT22;9297;47.258;11.362;2024-01-16T04:47:25;-0.20;89.60
5605;DHT22;9297;47.258;11.362;2024-01-16T04:49:52;-0.10;90.30
5605;DHT22;9297;47.258;11.362;2024-01-16T04:52:19;-0.10;90.30
5605;DHT22;9297;47.258;11.362;2024-01-16T04:54:46;-0.10;90.30
5605;DHT22;9297;47.258;11.362;2024-01-16T04:57:13;-0.10;89.80
5605;DHT22;9297;47.258;11.362;2024-01-16T04:59:42;-0.10;89.10
5605;DHT22;9297;47.258;11.362;2024-01-16T05:02:09;-0.10;89.40
5605;DHT22;9297;47.258;11.362;2024-01-16T05:04:38;0.00;88.20
5605;DHT22;9297;47.258;11.362;2024-01-16T05:07:05;0.00;87.20
5605;DHT22;9297;47.258;11.362;2024-01-16T05:09:32;-0.10;86.00
5605;DHT22;9297;47.258;11.362;2024-01-16T05:11:59;0.00;85.90
5605;DHT22;9297;47.258;11.362;2024-01-16T05:14:26;-0.10;84.70
5605;DHT22;9297;47.258;11.362;2024-01-16T05:16:55;-0.20;83.30
5605;DHT22;9297;47.258;11.362;2024-01-16T05:19:22;-0.10;84.60
5605;DHT22;9297;47.258;11.362;2024-01-16T05:21:49;-0.10;85.30
5605;DHT22;9297;47.258;11.362;2024-01-16T05:24:16;-0.10;85.00
5605;DHT22;9297;47.258;11.362;2024-01-16T05:26:43;-0.10;84.20
5605;DHT22;9297;47.258;11.362;2024-01-16T05:29:10;-0.10;84.40
5605;DHT22;9297;47.258;11.362;2024-01-16T05:31:40;-0.10;83.50
5605;DHT22;9297;47.258;11.362;2024-01-16T05:34:08;0.00;83.90
5605;DHT22;9297;47.258;11.362;2024-01-16T05:36:35;-0.10;83.70
5605;DHT22;9297;47.258;11.362;2024-01-16T05:39:02;-0.10;82.60
5605;DHT22;9297;47.258;11.362;2024-01-16T05:41:32;0.00;81.30
5605;DHT22;9297;47.258;11.362;2024-01-16T05:44:00;-0.10;80.30
5605;DHT22;9297;47.258;11.362;2024-01-16T05:46:27;-0.10;79.20
5605;DHT22;9297;47.258;11.362;2024-01-16T05:48:54;0.00;78.90
5605;DHT22;9297;47.258;11.362;2024-01-16T05:51:23;-0.20;79.20
5605;DHT22;9297;47.258;11.362;2024-01-16T05:53:50;-0.20;78.50
5605;DHT22;9297;47.258;11.362;2024-01-16T05:56:17;-0.20;79.30
5605;DHT22;9297;47.258;11.362;2024-01-16T05:58:44;-0.20;78.90
5605;DHT22;9297;47.258;11.362;2024-01-16T06:01:11;1.80;99.90
5605;DHT22;9297;47.258;11.362;2024-01-16T06:03:38;4.80;99.90
5605;DHT22;9297;47.258;11.362;2024-01-16T06:06:05;5.30;99.90
5605;DHT22;9297;47.258;11.362;2024-01-16T06:08:33;4.30;70.00
5605;DHT22;9297;47.258;11.362;2024-01-16T06:11:01;3.10;66.70
5605;DHT22;9297;47.258;11.362;2024-01-16T06:13:50;2.40;66.70
5605;DHT22;9297;47.258;11.362;2024-01-16T06:16:24;1.70;68.20
5605;DHT22;9297;47.258;11.362;2024-01-16T06:18:55;1.30;69.70
5605;DHT22;9297;47.258;11.362;2024-01-16T06:21:25;0.80;69.00
5605;DHT22;9297;47.258;11.362;2024-01-16T06:23:57;0.50;72.10
5605;DHT22;9297;47.258;11.362;2024-01-16T06:26:24;0.40;73.60
5605;DHT22;9297;47.258;11.362;2024-01-16T06:28:54;0.30;73.90
5605;DHT22;9297;47.258;11.362;2024-01-16T06:31:22;0.20;75.00
5605;DHT22;9297;47.258;11.362;2024-01-16T06:33:49;0.00;73.70
5605;DHT22;9297;47.258;11.362;2024-01-16T06:36:16;0.00;75.00
5605;DHT22;9297;47.258;11.362;2024-01-16T06:38:43;0.00;75.50
5605;DHT22;9297;47.258;11.362;2024-01-16T06:41:21;-0.10;76.40
5605;DHT22;9297;47.258;11.362;2024-01-16T06:43:48;-0.10;75.80
5605;DHT22;9297;47.258;11.362;2024-01-16T06:46:15;-0.20;76.60
5605;DHT22;9297;47.258;11.362;2024-01-16T06:48:42;-0.20;78.00
5605;DHT22;9297;47.258;11.362;2024-01-16T06:51:09;-0.20;77.60
5605;DHT22;9297;47.258;11.362;2024-01-16T06:53:36;-0.30;77.90
5605;DHT22;9297;47.258;11.362;2024-01-16T06:56:06;-0.30;78.20
5605;DHT22;9297;47.258;11.362;2024-01-16T06:58:34;-0.30;78.50
5605;DHT22;9297;47.258;11.362;2024-01-16T07:01:02;-0.30;78.40
5605;DHT22;9297;47.258;11.362;2024-01-16T07:03:29;-0.30;78.00
5605;DHT22;9297;47.258;11.362;2024-01-16T07:05:56;-0.40;75.80
5605;DHT22;9297;47.258;11.362;2024-01-16T07:08:23;-0.40;77.20
5605;DHT22;9297;47.258;11.362;2024-01-16T07:10:50;-0.40;77.30
5605;DHT22;9297;47.258;11.362;2024-01-16T07:13:17;-0.40;77.40
5605;DHT22;9297;47.258;11.362;2024-01-16T07:15:46;0.10;99.90
5605;DHT22;9297;47.258;11.362;2024-01-16T07:18:13;0.10;91.60
5605;DHT22;9297;47.258;11.362;2024-01-16T07:20:40;0.20;88.40
5605;DHT22;9297;47.258;11.362;2024-01-16T07:23:07;0.20;81.00
5605;DHT22;9297;47.258;11.362;2024-01-16T07:25:34;0.30;80.50
5605;DHT22;9297;47.258;11.362;2024-01-16T07:28:01;0.20;77.40
5605;DHT22;9297;47.258;11.362;2024-01-16T07:30:28;0.00;75.20
5605;DHT22;9297;47.258;11.362;2024-01-16T07:32:56;0.10;76.50
5605;DHT22;9297;47.258;11.362;2024-01-16T07:35:24;-0.30;74.00
5605;DHT22;9297;47.258;11.362;2024-01-16T07:37:51;-0.30;75.00
5605;DHT22;9297;47.258;11.362;2024-01-16T07:40:17;-0.30;74.90
5605;DHT22;9297;47.258;11.362;2024-01-16T07:42:44;-0.40;73.40
5605;DHT22;9297;47.258;11.362;2024-01-16T07:45:11;-0.30;74.10
5605;DHT22;9297;47.258;11.362;2024-01-16T07:47:38;-0.30;73.70
5605;DHT22;9297;47.258;11.362;2024-01-16T07:50:08;-0.50;72.60
5605;DHT22;9297;47.258;11.362;2024-01-16T07:52:35;-0.40;72.50
5605;DHT22;9297;47.258;11.362;2024-01-16T07:55:02;-0.50;73.00
5605;DHT22;9297;47.258;11.362;2024-01-16T07:57:29;-0.50;72.20
5605;DHT22;9297;47.258;11.362;2024-01-16T07:59:56;-0.50;72.70
5605;DHT22;9297;47.258;11.362;2024-01-16T08:02:30;-0.60;72.30
5605;DHT22;9297;47.258;11.362;2024-01-16T08:04:58;-0.60;71.60
5605;DHT22;9297;47.258;11.362;2024-01-16T08:07:26;-0.60;72.10
5605;DHT22;9297;47.258;11.362;2024-01-16T08:09:53;-0.50;72.00
5605;DHT22;9297;47.258;11.362;2024-01-16T08:12:20;-0.50;70.90
5605;DHT22;9297;47.258;11.362;2024-01-16T08:14:47;-0.40;70.60
5605;DHT22;9297;47.258;11.362;2024-01-16T08:17:14;-0.40;70.50
5605;DHT22;9297;47.258;11.362;2024-01-16T08:19:41;-0.40;70.00
5605;DHT22;9297;47.258;11.362;2024-01-16T08:22:08;-0.50;67.60
5605;DHT22;9297;47.258;11.362;2024-01-16T08:24:37;-0.50;67.60
5605;DHT22;9297;47.258;11.362;2024-01-16T08:27:04;-0.40;66.70
5605;DHT22;9297;47.258;11.362;2024-01-16T08:29:31;-0.40;66.90
5605;DHT22;9297;47.258;11.362;2024-01-16T08:31:58;-0.40;66.70
5605;DHT22;9297;47.258;11.362;2024-01-16T08:34:25;-0.40;66.60
5605;DHT22;9297;47.258;11.362;2024-01-16T08:36:52;-0.40;66.20
5605;DHT22;9297;47.258;11.362;2024-01-16T08:39:19;-0.40;65.70
5605;DHT22;9297;47.258;11.362;2024-01-16T08:41:47;-0.40;65.00
5605;DHT22;9297;47.258;11.362;2024-01-16T08:44:14;-0.30;64.80
5605;DHT22;9297;47.258;11.362;2024-01-16T08:46:41;-0.50;63.20
5605;DHT22;9297;47.258;11.362;2024-01-16T08:49:08;-0.50;65.40
5605;DHT22;9297;47.258;11.362;2024-01-16T08:51:35;-0.50;65.30
5605;DHT22;9297;47.258;11.362;2024-01-16T08:54:02;-0.30;65.10
5605;DHT22;9297;47.258;11.362;2024-01-16T08:56:29;-0.30;63.20
5605;DHT22;9297;47.258;11.362;2024-01-16T08:58:58;-0.30;62.40
5605;DHT22;9297;47.258;11.362;2024-01-16T09:01:24;-0.70;61.70
5605;DHT22;9297;47.258;11.362;2024-01-16T09:03:51;-0.40;62.50
5605;DHT22;9297;47.258;11.362;2024-01-16T09:06:18;-0.40;62.90
5605;DHT22;9297;47.258;11.362;2024-01-16T09:08:45;-0.10;62.40
5605;DHT22;9297;47.258;11.362;2024-01-16T09:11:12;-0.10;61.60
5605;DHT22;9297;47.258;11.362;2024-01-16T09:13:39;-0.20;60.70
5605;DHT22;9297;47.258;11.362;2024-01-16T09:16:08;-0.30;62.40
5605;DHT22;9297;47.258;11.362;2024-01-16T09:18:35;-0.20;60.90
5605;DHT22;9297;47.258;11.362;2024-01-16T09:21:03;-0.20;61.00
5605;DHT22;9297;47.258;11.362;2024-01-16T09:23:30;0.10;61.60
5605;DHT22;9297;47.258;11.362;2024-01-16T09:25:57;0.20;60.60
5605;DHT22;9297;47.258;11.362;2024-01-16T09:28:24;0.30;60.90
5605;DHT22;9297;47.258;11.362;2024-01-16T09:30:51;0.20;62.40
5605;DHT22;9297;47.258;11.362;2024-01-16T09:33:19;0.20;61.10
5605;DHT22;9297;47.258;11.362;2024-01-16T09:35:46;0.30;62.40
5605;DHT22;9297;47.258;11.362;2024-01-16T09:38:13;0.30;60.60
5605;DHT22;9297;47.258;11.362;2024-01-16T09:40:40;0.30;59.70
5605;DHT22;9297;47.258;11.362;2024-01-16T09:43:07;0.30;61.30
5605;DHT22;9297;47.258;11.362;2024-01-16T09:45:37;0.50;63.10
5605;DHT22;9297;47.258;11.362;2024-01-16T09:48:05;0.60;59.60
5605;DHT22;9297;47.258;11.362;2024-01-16T09:50:34;0.70;58.80
5605;DHT22;9297;47.258;11.362;2024-01-16T09:53:01;0.80;58.80
5605;DHT22;9297;47.258;11.362;2024-01-16T09:55:28;0.90;57.60
5605;DHT22;9297;47.258;11.362;2024-01-16T09:57:55;0.70;58.80
5605;DHT22;9297;47.258;11.362;2024-01-16T10:00:24;0.90;59.50
5605;DHT22;9297;47.258;11.362;2024-01-16T10:02:51;1.10;59.20
5605;DHT22;9297;47.258;11.362;2024-01-16T10:05:19;1.20;58.60
5605;DHT22;9297;47.258;11.362;2024-01-16T10:07:48;0.90;57.40
5605;DHT22;9297;47.258;11.362;2024-01-16T10:10:16;1.30;57.90
5605;DHT22;9297;47.258;11.362;2024-01-16T10:12:56;1.30;57.40
5605;DHT22;9297;47.258;11.362;2024-01-16T10:15:23;1.40;60.10
5605;DHT22;9297;47.258;11.362;2024-01-16T10:17:50;1.60;60.10
5605;DHT22;9297;47.258;11.362;2024-01-16T10:20:31;1.80;59.80
5605;DHT22;9297;47.258;11.362;2024-01-16T10:23:00;1.70;58.30
5605;DHT22;9297;47.258;11.362;2024-01-16T10:25:27;1.80;58.00
5605;DHT22;9297;47.258;11.362;2024-01-16T10:28:03;1.90;57.90
5605;DHT22;9297;47.258;11.362;2024-01-16T10:30:31;1.90;57.10
5605;DHT22;9297;47.258;11.362;2024-01-16T10:33:12;2.00;56.30
5605;DHT22;9297;47.258;11.362;2024-01-16T10:35:40;2.10;56.20
5605;DHT22;9297;47.258;11.362;2024-01-16T10:38:08;2.00;56.70
5605;DHT22;9297;47.258;11.362;2024-01-16T10:40:35;2.10;57.20
5605;DHT22;9297;47.258;11.362;2024-01-16T10:43:03;2.00;56.70
5605;DHT22;9297;47.258;11.362;2024-01-16T10:45:31;1.80;57.00
5605;DHT22;9297;47.258;11.362;2024-01-16T10:48:01;1.90;57.50
5605;DHT22;9297;47.258;11.362;2024-01-16T10:50:28;2.00;58.40
5605;DHT22;9297;47.258;11.362;2024-01-16T10:52:55;2.20;57.60
5605;DHT22;9297;47.258;11.362;2024-01-16T10:55:25;2.30;56.30
5605;DHT22;9297;47.258;11.362;2024-01-16T10:57:55;2.40;55.80
5605;DHT22;9297;47.258;11.362;2024-01-16T11:00:23;2.60;55.30
5605;DHT22;9297;47.258;11.362;2024-01-16T11:02:57;2.60;53.90
5605;DHT22;9297;47.258;11.362;2024-01-16T11:05:26;2.80;54.10
5605;DHT22;9297;47.258;11.362;2024-01-16T11:07:54;2.90;54.30
5605;DHT22;9297;47.258;11.362;2024-01-16T11:10:22;3.10;55.10
5605;DHT22;9297;47.258;11.362;2024-01-16T11:12:51;3.10;54.60
5605;DHT22;9297;47.258;11.362;2024-01-16T11:15:19;3.20;53.50
5605;DHT22;9297;47.258;11.362;2024-01-16T11:17:47;3.50;53.60
5605;DHT22;9297;47.258;11.362;2024-01-16T11:20:14;3.60;52.60
5605;DHT22;9297;47.258;11.362;2024-01-16T11:23:02;3.90;51.90
5605;DHT22;9297;47.258;11.362;2024-01-16T11:25:33;3.70;51.00
5605;DHT22;9297;47.258;11.362;2024-01-16T11:28:09;3.60;51.20
5605;DHT22;9297;47.258;11.362;2024-01-16T11:30:36;4.00;50.70
5605;DHT22;9297;47.258;11.362;2024-01-16T11:33:04;4.00;49.80
5605;DHT22;9297;47.258;11.362;2024-01-16T11:35:35;4.00;51.10
5605;DHT22;9297;47.258;11.362;2024-01-16T11:38:08;4.20;50.40
5605;DHT22;9297;47.258;11.362;2024-01-16T11:40:36;4.10;49.70
5605;DHT22;9297;47.258;11.362;2024-01-16T11:43:36;4.40;50.10
5605;DHT22;9297;47.258;11.362;2024-01-16T11:46:04;4.50;49.90
5605;DHT22;9297;47.258;11.362;2024-01-16T11:48:31;4.60;49.20
5605;DHT22;9297;47.258;11.362;2024-01-16T11:50:58;4.50;49.20
5605;DHT22;9297;47.258;11.362;2024-01-16T11:53:33;4.30;49.20
5605;DHT22;9297;47.258;11.362;2024-01-16T11:59:41;4.30;49.90
5605;DHT22;9297;47.258;11.362;2024-01-16T12:02:14;3.90;51.20
5605;DHT22;9297;47.258;11.362;2024-01-16T12:04:43;3.80;51.40
5605;DHT22;9297;47.258;11.362;2024-01-16T12:07:18;3.70;51.90
5605;DHT22;9297;47.258;11.362;2024-01-16T12:09:45;3.40;52.60
5605;DHT22;9297;47.258;11.362;2024-01-16T12:12:15;3.20;53.30
5605;DHT22;9297;47.258;11.362;2024-01-16T12:14:51;3.30;53.60
5605;DHT22;9297;47.258;11.362;2024-01-16T12:17:18;3.30;53.50
5605;DHT22;9297;47.258;11.362;2024-01-16T12:19:45;3.30;53.90
5605;DHT22;9297;47.258;11.362;2024-01-16T12:22:13;3.40;53.20
5605;DHT22;9297;47.258;11.362;2024-01-16T12:24:41;3.40;53.20
5605;DHT22;9297;47.258;11.362;2024-01-16T12:27:08;3.30;52.30
5605;DHT22;9297;47.258;11.362;2024-01-16T12:29:35;3.30;53.30
5605;DHT22;9297;47.258;11.362;2024-01-16T12:32:08;3.10;53.60
5605;DHT22;9297;47.258;11.362;2024-01-16T12:34:35;3.20;52.80
5605;DHT22;9297;47.258;11.362;2024-01-16T12:37:06;3.20;53.30
5605;DHT22;9297;47.258;11.362;2024-01-16T12:39:33;3.30;52.80
5605;DHT22;9297;47.258;11.362;2024-01-16T12:42:00;3.40;54.20
5605;DHT22;9297;47.258;11.362;2024-01-16T12:44:27;3.60;52.80
5605;DHT22;9297;47.258;11.362;2024-01-16T12:46:55;3.70;51.60
5605;DHT22;9297;47.258;11.362;2024-01-16T12:49:23;3.80;51.20
5605;DHT22;9297;47.258;11.362;2024-01-16T12:51:51;3.90;51.20
5605;DHT22;9297;47.258;11.362;2024-01-16T12:54:19;3.70;51.70
5605;DHT22;9297;47.258;11.362;2024-01-16T12:56:47;4.00;50.70
5605;DHT22;9297;47.258;11.362;2024-01-16T12:59:14;3.90;50.70
5605;DHT22;9297;47.258;11.362;2024-01-16T13:01:42;3.90;50.80
5605;DHT22;9297;47.258;11.362;2024-01-16T13:04:09;3.80;50.70
5605;DHT22;9297;47.258;11.362;2024-01-16T13:06:38;3.90;51.10
5605;DHT22;9297;47.258;11.362;2024-01-16T13:09:06;4.10;50.60
5605;DHT22;9297;47.258;11.362;2024-01-16T13:11:45;4.20;49.70
5605;DHT22;9297;47.258;11.362;2024-01-16T13:14:12;4.40;50.40
5605;DHT22;9297;47.258;11.362;2024-01-16T13:16:39;4.20;52.60
5605;DHT22;9297;47.258;11.362;2024-01-16T13:19:06;4.20;51.90
5605;DHT22;9297;47.258;11.362;2024-01-16T13:21:33;4.10;52.00
5605;DHT22;9297;47.258;11.362;2024-01-16T13:24:02;4.20;53.90
5605;DHT22;9297;47.258;11.362;2024-01-16T13:26:29;4.20;53.20
5605;DHT22;9297;47.258;11.362;2024-01-16T13:28:56;4.10;55.50
5605;DHT22;9297;47.258;11.362;2024-01-16T13:31:23;4.10;54.00
5605;DHT22;9297;47.258;11.362;2024-01-16T13:33:50;4.10;54.00
5605;DHT22;9297;47.258;11.362;2024-01-16T13:36:17;4.10;53.50
5605;DHT22;9297;47.258;11.362;2024-01-16T13:39:05;4.10;55.20
5605;DHT22;9297;47.258;11.362;2024-01-16T13:41:32;4.20;54.50
5605;DHT22;9297;47.258;11.362;2024-01-16T13:43:59;4.10;52.60
5605;DHT22;9297;47.258;11.362;2024-01-16T13:46:26;4.20;54.50
5605;DHT22;9297;47.258;11.362;2024-01-16T13:49:13;4.00;53.10
5605;DHT22;9297;47.258;11.362;2024-01-16T13:51:43;4.00;55.10
5605;DHT22;9297;47.258;11.362;2024-01-16T13:54:12;3.90;56.00
5605;DHT22;9297;47.258;11.362;2024-01-16T13:56:39;4.00;55.20
5605;DHT22;9297;47.258;11.362;2024-01-16T13:59:26;4.00;55.60
5605;DHT22;9297;47.258;11.362;2024-01-16T14:01:55;4.00;56.00
5605;DHT22;9297;47.258;11.362;2024-01-16T14:04:22;4.10;56.30
5605;DHT22;9297;47.258;11.362;2024-01-16T14:06:49;4.20;56.00
5605;DHT22;9297;47.258;11.362;2024-01-16T14:09:37;4.60;57.10
5605;DHT22;9297;47.258;11.362;2024-01-16T14:12:08;5.10;54.50
5605;DHT22;9297;47.258;11.362;2024-01-16T14:14:36;5.20;52.60
5605;DHT22;9297;47.258;11.362;2024-01-16T14:17:03;5.10;53.40
5605;DHT22;9297;47.258;11.362;2024-01-16T14:19:30;4.40;54.70
5605;DHT22;9297;47.258;11.362;2024-01-16T14:21:58;4.10;55.90
5605;DHT22;9297;47.258;11.362;2024-01-16T14:24:25;3.90;58.20
5605;DHT22;9297;47.258;11.362;2024-01-16T14:26:54;3.80;56.80
5605;DHT22;9297;47.258;11.362;2024-01-16T14:29:21;4.50;54.40
5605;DHT22;9297;47.258;11.362;2024-01-16T14:31:48;5.20;51.70
5605;DHT22;9297;47.258;11.362;2024-01-16T14:34:17;5.00;51.70
5605;DHT22;9297;47.258;11.362;2024-01-16T14:36:44;4.50;52.90
5605;DHT22;9297;47.258;11.362;2024-01-16T14:39:11;3.90;54.80
5605;DHT22;9297;47.258;11.362;2024-01-16T14:41:38;3.60;55.80
5605;DHT22;9297;47.258;11.362;2024-01-16T14:44:09;4.00;55.00
5605;DHT22;9297;47.258;11.362;2024-01-16T14:46:36;3.90;55.30
5605;DHT22;9297;47.258;11.362;2024-01-16T14:49:03;3.60;56.00
5605;DHT22;9297;47.258;11.362;2024-01-16T14:51:30;3.30;57.50
5605;DHT22;9297;47.258;11.362;2024-01-16T14:53:59;3.00;58.30
5605;DHT22;9297;47.258;11.362;2024-01-16T14:56:26;2.80;60.30
5605;DHT22;9297;47.258;11.362;2024-01-16T14:58:53;2.70;60.50
5605;DHT22;9297;47.258;11.362;2024-01-16T15:01:22;2.60;61.10
5605;DHT22;9297;47.258;11.362;2024-01-16T15:03:49;2.50;62.00
5605;DHT22;9297;47.258;11.362;2024-01-16T15:06:16;2.40;63.60
5605;DHT22;9297;47.258;11.362;2024-01-16T15:08:43;2.20;66.10
5605;DHT22;9297;47.258;11.362;2024-01-16T15:11:10;2.10;64.70
5605;DHT22;9297;47.258;11.362;2024-01-16T15:13:37;2.00;65.30
5605;DHT22;9297;47.258;11.362;2024-01-16T15:16:04;1.80;65.60
5605;DHT22;9297;47.258;11.362;2024-01-16T15:18:32;1.80;65.60
5605;DHT22;9297;47.258;11.362;2024-01-16T15:20:59;1.80;65.20
5605;DHT22;9297;47.258;11.362;2024-01-16T15:23:27;1.70;66.00
5605;DHT22;9297;47.258;11.362;2024-01-16T15:25:54;1.60;66.40
5605;DHT22;9297;47.258;11.362;2024-01-16T15:28:20;1.50;66.70
5605;DHT22;9297;47.258;11.362;2024-01-16T15:30:47;1.50;67.90
5605;DHT22;9297;47.258;11.362;2024-01-16T15:33:14;1.60;66.80
5605;DHT22;9297;47.258;11.362;2024-01-16T15:35:43;1.50;66.90
5605;DHT22;9297;47.258;11.362;2024-01-16T15:38:13;1.50;67.60
5605;DHT22;9297;47.258;11.362;2024-01-16T15:40:40;1.30;68.00
5605;DHT22;9297;47.258;11.362;2024-01-16T15:43:07;1.20;68.70
5605;DHT22;9297;47.258;11.362;2024-01-16T15:45:34;1.20;69.10
5605;DHT22;9297;47.258;11.362;2024-01-16T15:48:00;1.10;69.40
5605;DHT22;9297;47.258;11.362;2024-01-16T15:50:28;1.10;69.70
5605;DHT22;9297;47.258;11.362;2024-01-16T15:52:56;1.10;70.00
5605;DHT22;9297;47.258;11.362;2024-01-16T15:55:23;1.10;70.80
5605;DHT22;9297;47.258;11.362;2024-01-16T15:57:50;1.00;70.30
5605;DHT22;9297;47.258;11.362;2024-01-16T16:00:17;0.90;70.70
5605;DHT22;9297;47.258;11.362;2024-01-16T16:02:44;0.80;70.90
5605;DHT22;9297;47.258;11.362;2024-01-16T16:05:11;0.70;71.10
5605;DHT22;9297;47.258;11.362;2024-01-16T16:07:38;0.80;71.00